createdAt,value
2023-04-18T00:01:39.262Z,9.19
2023-04-18T00:04:12.428Z,9.18
2023-04-18T00:06:47.423Z,9.18
2023-04-18T00:09:20.632Z,9.17
2023-04-18T00:11:54.306Z,9.18
2023-04-18T00:14:29.125Z,9.18
2023-04-18T00:17:03.316Z,9.18
2023-04-18T00:19:36.381Z,9.17
2023-04-18T00:22:09.650Z,9.17
2023-04-18T00:24:42.859Z,9.16
2023-04-18T00:27:15.846Z,9.15
2023-04-18T00:29:50.137Z,9.13
2023-04-18T00:32:23.284Z,9.13
2023-04-18T00:34:58.024Z,9.13
2023-04-18T00:37:32.339Z,9.14
2023-04-18T00:40:06.452Z,9.14
2023-04-18T00:42:40.922Z,9.13
2023-04-18T00:45:14.653Z,9.11
2023-04-18T00:47:48.819Z,9.12
2023-04-18T00:50:23.980Z,9.12
2023-04-18T00:52:58.007Z,9.10
2023-04-18T00:55:32.180Z,9.09
2023-04-18T00:58:06.412Z,9.06
2023-04-18T01:00:39.899Z,9.06
2023-04-18T01:03:14.557Z,9.07
2023-04-18T01:05:47.906Z,9.04
2023-04-18T01:08:22.865Z,9.04
2023-04-18T01:10:57.311Z,9.00
2023-04-18T01:13:30.712Z,9.00
2023-04-18T01:16:03.830Z,9.00
2023-04-18T01:18:40.368Z,9.01
2023-04-18T01:21:14.864Z,9.01
2023-04-18T01:23:49.397Z,9.01
2023-04-18T01:26:23.111Z,9.00
2023-04-18T01:28:56.410Z,8.99
2023-04-18T01:31:29.554Z,8.97
2023-04-18T01:34:08.655Z,8.99
2023-04-18T01:36:42.398Z,8.96
2023-04-18T01:39:18.460Z,8.93
2023-04-18T01:41:52.360Z,8.93
2023-04-18T01:44:26.294Z,8.92
2023-04-18T01:46:59.432Z,8.92
2023-04-18T01:49:33.296Z,8.91
2023-04-18T01:52:06.599Z,8.90
2023-04-18T01:54:39.857Z,8.89
2023-04-18T01:57:14.514Z,8.87
2023-04-18T01:59:47.663Z,8.87
2023-04-18T02:02:21.103Z,8.87
2023-04-18T02:04:54.104Z,8.87
2023-04-18T02:07:27.114Z,8.87
2023-04-18T02:10:01.192Z,8.88
2023-04-18T02:12:37.880Z,8.89
2023-04-18T02:15:12.529Z,8.90
2023-04-18T02:17:45.958Z,8.90
2023-04-18T02:20:19.164Z,8.91
2023-04-18T02:22:52.057Z,8.92
2023-04-18T02:25:27.767Z,8.91
2023-04-18T02:28:01.210Z,8.90
2023-04-18T02:30:38.512Z,8.91
2023-04-18T02:33:12.345Z,8.92
2023-04-18T02:35:47.948Z,8.92
2023-04-18T02:38:26.010Z,8.93
2023-04-18T02:40:59.220Z,8.91
2023-04-18T02:43:33.231Z,8.91
2023-04-18T02:46:08.394Z,8.91
2023-04-18T02:48:42.224Z,8.92
2023-04-18T02:51:15.893Z,8.93
2023-04-18T02:53:55.003Z,8.93
2023-04-18T02:56:29.771Z,8.93
2023-04-18T02:59:26.729Z,8.93
2023-04-18T03:02:32.158Z,8.92
2023-04-18T03:05:10.849Z,8.92
2023-04-18T03:07:45.646Z,8.93
2023-04-18T03:10:18.898Z,8.92
2023-04-18T03:12:52.811Z,8.94
2023-04-18T03:15:26.968Z,8.94
2023-04-18T03:18:01.246Z,8.93
2023-04-18T03:20:39.276Z,8.91
2023-04-18T03:23:13.747Z,8.91
2023-04-18T03:25:47.012Z,8.92
2023-04-18T03:28:20.236Z,8.92
2023-04-18T03:30:53.927Z,8.93
2023-04-18T03:33:28.940Z,8.93
2023-04-18T03:36:11.787Z,8.92
2023-04-18T03:38:46.068Z,8.93
2023-04-18T03:41:22.582Z,8.94
2023-04-18T03:43:55.717Z,8.93
2023-04-18T03:46:28.969Z,8.93
2023-04-18T03:49:02.861Z,8.93
2023-04-18T03:51:43.381Z,8.92
2023-04-18T03:54:17.560Z,8.93
2023-04-18T03:56:50.626Z,8.94
2023-04-18T03:59:25.480Z,8.97
2023-04-18T04:01:58.778Z,8.97
2023-04-18T04:04:31.947Z,8.99
2023-04-18T04:07:05.230Z,9.01
2023-04-18T04:09:38.322Z,9.02
2023-04-18T04:12:12.370Z,9.03
2023-04-18T04:14:45.463Z,9.05
2023-04-18T04:17:19.695Z,9.06
2023-04-18T04:19:53.824Z,9.08
2023-04-18T04:22:27.516Z,9.10
2023-04-18T04:25:02.921Z,9.13
2023-04-18T04:27:42.911Z,9.15
2023-04-18T04:30:17.997Z,9.17
2023-04-18T04:32:52.164Z,9.19
2023-04-18T04:35:26.742Z,9.20
2023-04-18T04:38:01.793Z,9.23
2023-04-18T04:40:47.609Z,9.25
2023-04-18T04:43:21.756Z,9.29
2023-04-18T04:45:57.809Z,9.30
2023-04-18T04:48:32.402Z,9.33
2023-04-18T04:51:07.976Z,9.36
2023-04-18T04:53:41.812Z,9.39
2023-04-18T04:56:14.988Z,9.42
2023-04-18T04:58:49.908Z,9.46
2023-04-18T05:01:49.690Z,9.50
2023-04-18T05:04:26.073Z,9.52
2023-04-18T05:06:59.890Z,9.54
2023-04-18T05:09:34.667Z,9.56
2023-04-18T05:12:08.562Z,9.57
2023-04-18T05:14:41.617Z,9.61
2023-04-18T05:17:18.970Z,9.62
2023-04-18T05:19:53.361Z,9.65
2023-04-18T05:22:27.975Z,9.68
2023-04-18T05:27:40.061Z,9.77
2023-04-18T05:30:14.043Z,9.81
2023-04-18T05:32:51.395Z,9.86
2023-04-18T05:35:26.390Z,9.90
2023-04-18T05:38:00.580Z,9.93
2023-04-18T05:40:35.163Z,9.97
2023-04-18T05:43:08.384Z,10.00
2023-04-18T05:45:42.330Z,10.05
2023-04-18T05:48:16.217Z,10.09
2023-04-18T05:50:49.340Z,10.11
2023-04-18T05:53:23.425Z,10.17
2023-04-18T05:55:57.778Z,10.22
2023-04-18T05:58:33.540Z,10.26
2023-04-18T06:01:07.053Z,10.31
2023-04-18T06:03:40.880Z,10.33
2023-04-18T06:06:15.675Z,10.35
2023-04-18T06:08:49.228Z,10.41
2023-04-18T06:11:23.311Z,10.46
2023-04-18T06:13:56.946Z,10.48
2023-04-18T06:16:29.937Z,10.49
2023-04-18T06:19:05.367Z,10.51
2023-04-18T06:21:42.189Z,10.53
2023-04-18T06:24:16.045Z,10.57
2023-04-18T06:26:49.846Z,10.61
2023-04-18T06:29:23.404Z,10.66
2023-04-18T06:31:57.610Z,10.70
2023-04-18T06:34:33.338Z,10.75
2023-04-18T06:37:07.253Z,10.81
2023-04-18T06:39:41.358Z,10.84
2023-04-18T06:42:14.761Z,10.91
2023-04-18T06:44:51.302Z,10.95
2023-04-18T06:47:24.418Z,11.00
2023-04-18T06:49:57.869Z,11.06
2023-04-18T06:52:31.441Z,11.06
2023-04-18T06:55:05.120Z,11.07
2023-04-18T06:57:41.233Z,11.08
2023-04-18T07:00:16.757Z,11.11
2023-04-18T07:02:52.051Z,11.14
2023-04-18T07:05:26.071Z,11.17
2023-04-18T07:08:00.615Z,11.22
2023-04-18T07:10:35.445Z,11.26
2023-04-18T07:13:08.627Z,11.29
2023-04-18T07:15:44.195Z,11.32
2023-04-18T07:18:30.141Z,11.35
2023-04-18T07:21:10.271Z,11.40
2023-04-18T07:23:45.860Z,11.45
2023-04-18T07:26:19.196Z,11.52
2023-04-18T07:28:52.406Z,11.57
2023-04-18T07:31:25.986Z,11.63
2023-04-18T07:33:59.576Z,11.69
2023-04-18T07:36:34.385Z,11.74
2023-04-18T07:39:07.331Z,11.78
2023-04-18T07:41:40.578Z,11.84
2023-04-18T07:44:13.969Z,11.89
2023-04-18T07:46:47.418Z,11.97
2023-04-18T07:49:21.051Z,12.06
2023-04-18T07:51:54.900Z,12.11
2023-04-18T07:54:28.201Z,12.18
2023-04-18T07:57:03.395Z,12.25
2023-04-18T07:59:36.981Z,12.35
2023-04-18T08:02:10.500Z,12.42
2023-04-18T08:04:43.827Z,12.47
2023-04-18T08:07:19.178Z,12.51
2023-04-18T08:09:53.879Z,12.56
2023-04-18T08:12:27.110Z,12.61
2023-04-18T08:15:00.154Z,12.68
2023-04-18T08:17:33.579Z,12.76
2023-04-18T08:20:07.778Z,12.84
2023-04-18T08:22:53.659Z,12.93
2023-04-18T08:25:36.837Z,13.05
2023-04-18T08:28:10.092Z,13.22
2023-04-18T08:30:48.906Z,13.43
2023-04-18T08:33:23.182Z,13.58
2023-04-18T08:35:56.049Z,13.68
2023-04-18T08:38:30.125Z,13.83
2023-04-18T08:41:08.121Z,13.96
2023-04-18T08:44:01.970Z,14.17
2023-04-18T08:46:37.881Z,14.36
2023-04-18T08:49:12.868Z,14.51
2023-04-18T08:51:48.741Z,14.64
2023-04-18T08:54:25.022Z,14.80
2023-04-18T08:57:10.531Z,14.91
2023-04-18T08:59:46.360Z,14.99
2023-04-18T09:02:22.197Z,15.11
2023-04-18T09:04:56.052Z,15.20
2023-04-18T09:07:46.768Z,15.29
2023-04-18T09:10:29.072Z,15.38
2023-04-18T09:13:03.398Z,15.47
2023-04-18T09:15:39.419Z,15.56
2023-04-18T09:18:13.227Z,15.63
2023-04-18T09:20:47.742Z,15.73
2023-04-18T09:23:27.004Z,15.80
2023-04-18T09:26:34.077Z,15.91
2023-04-18T09:29:17.611Z,16.02
2023-04-18T09:32:03.136Z,16.13
2023-04-18T09:34:38.467Z,16.20
2023-04-18T09:37:14.042Z,16.28
2023-04-18T09:39:48.398Z,16.40
2023-04-18T09:42:22.306Z,16.47
2023-04-18T09:45:09.518Z,16.56
2023-04-18T09:47:44.315Z,16.66
2023-04-18T09:50:18.494Z,16.71
2023-04-18T09:52:51.601Z,16.71
2023-04-18T09:55:25.121Z,16.78
2023-04-18T09:58:00.950Z,16.87
2023-04-18T10:00:35.379Z,16.89
2023-04-18T10:03:10.037Z,16.90
2023-04-18T10:05:43.822Z,16.94
2023-04-18T10:08:17.502Z,16.96
2023-04-18T10:10:53.778Z,16.92
2023-04-18T10:13:27.768Z,16.91
2023-04-18T10:16:01.439Z,17.00
2023-04-18T10:18:34.877Z,17.04
2023-04-18T10:21:10.258Z,17.04
2023-04-18T10:23:46.068Z,16.99
2023-04-18T10:26:19.565Z,16.95
2023-04-18T10:29:01.027Z,16.93
2023-04-18T10:31:41.667Z,16.91
2023-04-18T10:34:18.352Z,17.01
2023-04-18T10:37:08.324Z,17.11
2023-04-18T10:40:00.489Z,17.14
2023-04-18T10:42:58.215Z,17.12
2023-04-18T10:45:36.595Z,17.07
2023-04-18T10:48:30.313Z,17.06
2023-04-18T10:51:18.331Z,17.15
2023-04-18T10:53:58.324Z,17.25
2023-04-18T10:56:33.034Z,17.35
2023-04-18T10:59:07.294Z,17.45
2023-04-18T11:01:45.904Z,17.43
2023-04-18T11:04:19.707Z,17.51
2023-04-18T11:06:57.797Z,17.56
2023-04-18T11:09:31.388Z,17.57
2023-04-18T11:12:09.607Z,17.64
2023-04-18T11:14:47.317Z,17.69
2023-04-18T11:17:22.335Z,17.78
2023-04-18T11:20:04.724Z,17.86
2023-04-18T11:22:46.723Z,17.90
2023-04-18T11:25:22.307Z,17.87
2023-04-18T11:27:56.358Z,17.88
2023-04-18T11:30:31.544Z,17.83
2023-04-18T11:33:11.432Z,17.77
2023-04-18T11:35:46.697Z,17.78
2023-04-18T11:38:19.817Z,17.79
2023-04-18T11:40:54.749Z,17.84
2023-04-18T11:43:29.465Z,17.84
2023-04-18T11:46:02.821Z,17.86
2023-04-18T11:48:41.281Z,17.91
2023-04-18T11:51:35.883Z,17.87
2023-04-18T11:54:43.753Z,17.83
2023-04-18T11:57:27.430Z,17.88
2023-04-18T12:00:02.169Z,17.92
2023-04-18T12:02:47.387Z,17.90
2023-04-18T12:05:30.938Z,17.96
2023-04-18T12:08:11.585Z,17.96
2023-04-18T12:10:51.622Z,17.94
2023-04-18T12:13:33.726Z,17.87
2023-04-18T12:16:08.006Z,17.82
2023-04-18T12:18:42.013Z,17.79
2023-04-18T12:21:17.222Z,17.74
2023-04-18T12:23:50.578Z,17.65
2023-04-18T12:26:27.554Z,17.58
2023-04-18T12:29:16.471Z,17.55
2023-04-18T12:31:50.492Z,17.51
2023-04-18T12:34:24.491Z,17.46
2023-04-18T12:36:57.512Z,17.36
2023-04-18T12:39:31.739Z,17.28
2023-04-18T12:42:05.740Z,17.21
2023-04-18T12:44:38.850Z,17.12
2023-04-18T12:47:12.005Z,17.04
2023-04-18T12:49:45.210Z,17.00
2023-04-18T12:52:18.300Z,16.98
2023-04-18T12:54:51.511Z,16.95
2023-04-18T12:57:24.815Z,16.89
2023-04-18T12:59:57.994Z,16.89
2023-04-18T13:02:32.279Z,16.88
2023-04-18T13:05:05.319Z,16.84
2023-04-18T13:07:40.630Z,16.79
2023-04-18T13:10:16.314Z,16.76
2023-04-18T13:12:50.830Z,16.72
2023-04-18T13:15:24.627Z,16.74
2023-04-18T13:18:04.667Z,16.74
2023-04-18T13:20:39.102Z,16.71
2023-04-18T13:23:12.339Z,16.66
2023-04-18T13:25:45.415Z,16.65
2023-04-18T13:28:18.550Z,16.63
2023-04-18T13:30:51.964Z,16.63
2023-04-18T13:33:26.582Z,16.64
2023-04-18T13:35:59.849Z,16.64
2023-04-18T13:38:32.904Z,16.64
2023-04-18T13:41:21.450Z,16.67
2023-04-18T13:43:55.049Z,16.67
2023-04-18T13:46:28.713Z,16.65
2023-04-18T13:49:02.147Z,16.66
2023-04-18T13:51:36.564Z,16.69
2023-04-18T13:54:10.350Z,16.69
2023-04-18T13:56:45.116Z,16.62
2023-04-18T13:59:18.242Z,16.57
2023-04-18T14:01:51.964Z,16.52
2023-04-18T14:04:25.525Z,16.47
2023-04-18T14:07:00.514Z,16.44
2023-04-18T14:09:33.452Z,16.39
2023-04-18T14:12:08.927Z,16.38
2023-04-18T14:14:42.164Z,16.34
2023-04-18T14:17:15.326Z,16.32
2023-04-18T14:19:49.522Z,16.30
2023-04-18T14:22:22.587Z,16.28
2023-04-18T14:24:56.322Z,16.29
2023-04-18T14:27:29.843Z,16.29
2023-04-18T14:30:02.925Z,16.27
2023-04-18T14:32:36.316Z,16.23
2023-04-18T14:35:11.406Z,16.21
2023-04-18T14:37:45.912Z,16.19
2023-04-18T14:40:20.674Z,16.15
2023-04-18T14:42:53.986Z,16.12
2023-04-18T14:45:27.223Z,16.13
2023-04-18T14:48:01.231Z,16.14
2023-04-18T14:50:36.095Z,16.11
2023-04-18T14:53:11.661Z,16.07
2023-04-18T14:55:46.134Z,16.06
2023-04-18T14:58:19.568Z,16.02
2023-04-18T15:00:57.708Z,16.04
2023-04-18T15:03:31.006Z,16.01
2023-04-18T15:06:05.070Z,15.97
2023-04-18T15:08:38.071Z,15.95
2023-04-18T15:11:12.414Z,15.93
2023-04-18T15:13:47.732Z,15.93
2023-04-18T15:16:21.802Z,15.95
2023-04-18T15:18:54.863Z,15.95
2023-04-18T15:21:28.159Z,15.92
2023-04-18T15:24:01.135Z,15.90
2023-04-18T15:26:34.517Z,15.89
2023-04-18T15:29:18.225Z,15.87
2023-04-18T15:31:51.536Z,15.84
2023-04-18T15:34:24.458Z,15.84
2023-04-18T15:36:58.013Z,15.83
2023-04-18T15:39:31.221Z,15.82
2023-04-18T15:42:07.172Z,15.76
2023-04-18T15:44:41.582Z,15.70
2023-04-18T15:47:14.836Z,15.70
2023-04-18T15:49:48.034Z,15.69
2023-04-18T15:52:20.887Z,15.67
2023-04-18T15:54:55.348Z,15.64
2023-04-18T15:57:29.766Z,15.61
2023-04-18T16:00:05.666Z,15.59
2023-04-18T16:02:38.667Z,15.57
2023-04-18T16:05:13.093Z,15.57
2023-04-18T16:07:46.818Z,15.53
2023-04-18T16:10:19.856Z,15.50
2023-04-18T16:12:53.776Z,15.46
2023-04-18T16:15:27.112Z,15.42
2023-04-18T16:18:00.316Z,15.37
2023-04-18T16:20:33.701Z,15.31
2023-04-18T16:23:07.286Z,15.26
2023-04-18T16:25:41.669Z,15.22
2023-04-18T16:28:14.855Z,15.19
2023-04-18T16:30:48.322Z,15.18
2023-04-18T16:33:25.847Z,15.11
2023-04-18T16:36:03.273Z,15.09
2023-04-18T16:38:36.516Z,15.07
2023-04-18T16:41:09.932Z,15.00
2023-04-18T16:43:42.965Z,14.96
2023-04-18T16:46:16.184Z,14.93
2023-04-18T16:48:52.572Z,14.85
2023-04-18T16:51:26.311Z,14.80
2023-04-18T16:54:00.660Z,14.77
2023-04-18T16:56:35.657Z,14.70
2023-04-18T16:59:09.466Z,14.65
2023-04-18T17:01:43.497Z,14.60
2023-04-18T17:04:17.145Z,14.52
2023-04-18T17:06:52.107Z,14.46
2023-04-18T17:09:25.766Z,14.41
2023-04-18T17:11:59.164Z,14.35
2023-04-18T17:30:51.655Z,13.76
2023-04-18T17:33:21.970Z,13.66
2023-04-18T17:35:55.983Z,13.58
2023-04-18T17:38:26.308Z,13.49
2023-04-18T17:41:02.039Z,13.39
2023-04-18T17:43:32.068Z,13.29
2023-04-18T17:46:03.284Z,13.21
2023-04-18T17:48:33.738Z,13.10
2023-04-18T17:51:04.073Z,13.00
2023-04-18T17:53:34.382Z,12.92
2023-04-18T17:56:05.891Z,12.86
2023-04-18T17:58:36.449Z,12.81
2023-04-18T18:01:16.667Z,12.74
2023-04-18T18:03:47.794Z,12.67
2023-04-18T18:06:18.708Z,12.61
2023-04-18T18:08:48.613Z,12.57
2023-04-18T18:11:18.932Z,12.52
2023-04-18T18:13:51.290Z,12.45
2023-04-18T18:16:21.261Z,12.40
2023-04-18T18:18:52.159Z,12.34
2023-04-18T18:21:22.680Z,12.30
2023-04-18T18:23:53.213Z,12.24
2023-04-18T18:26:26.078Z,12.18
2023-04-18T18:28:56.524Z,12.11
2023-04-18T18:31:27.059Z,12.07
2023-04-18T18:33:57.378Z,12.01
2023-04-18T18:36:28.041Z,11.96
2023-04-18T18:39:00.903Z,11.93
2023-04-18T18:41:32.633Z,11.92
2023-04-18T18:44:01.933Z,11.87
2023-04-18T18:46:31.694Z,11.85
2023-04-18T18:49:02.169Z,11.79
2023-04-18T18:51:32.504Z,11.76
2023-04-18T18:54:02.812Z,11.75
2023-04-18T18:56:33.140Z,11.72
2023-04-18T18:59:03.870Z,11.68
2023-04-18T19:01:34.043Z,11.67
2023-04-18T19:04:05.077Z,11.65
2023-04-18T19:06:35.866Z,11.61
2023-04-18T19:09:06.774Z,11.59
2023-04-18T19:11:37.332Z,11.57
2023-04-18T19:14:07.650Z,11.55
2023-04-18T19:16:37.937Z,11.54
2023-04-18T19:19:08.719Z,11.51
2023-04-18T19:21:39.442Z,11.50
2023-04-18T19:24:11.297Z,11.47
2023-04-18T19:26:42.140Z,11.47
2023-04-18T19:29:13.908Z,11.46
2023-04-18T19:31:44.671Z,11.44
2023-04-18T19:34:14.952Z,11.43
2023-04-18T19:36:46.119Z,11.42
2023-04-18T19:39:17.846Z,11.41
2023-04-18T19:41:48.584Z,11.41
2023-04-18T19:44:18.497Z,11.39
2023-04-18T19:46:49.835Z,11.38
2023-04-18T19:49:22.209Z,11.35
2023-04-18T19:51:52.121Z,11.32
2023-04-18T19:54:22.651Z,11.28
2023-04-18T19:56:52.970Z,11.25
2023-04-18T19:59:23.705Z,11.22
2023-04-18T20:01:54.039Z,11.22
2023-04-18T20:04:25.288Z,11.22
2023-04-18T20:06:56.925Z,11.18
2023-04-18T20:09:27.048Z,11.18
2023-04-18T20:12:00.037Z,11.13
2023-04-18T20:14:30.760Z,11.12
2023-04-18T20:17:01.616Z,11.12
2023-04-18T20:19:32.020Z,11.12
2023-04-18T20:22:05.551Z,11.11
2023-04-18T20:24:35.742Z,11.13
2023-04-18T20:27:06.675Z,11.11
2023-04-18T20:29:36.810Z,11.10
2023-04-18T20:32:08.213Z,11.10
2023-04-18T20:34:38.472Z,11.09
2023-04-18T20:37:09.807Z,11.08
2023-04-18T20:39:41.694Z,11.07
2023-04-18T20:42:14.163Z,11.06
2023-04-18T20:44:46.312Z,11.07
2023-04-18T20:47:17.260Z,11.07
2023-04-18T20:49:48.391Z,11.06
2023-04-18T20:52:19.624Z,11.05
2023-04-18T20:54:49.857Z,11.05
2023-04-18T20:57:20.996Z,11.04
2023-04-18T20:59:51.144Z,11.04
2023-04-18T21:02:21.294Z,11.04
2023-04-18T21:04:53.042Z,11.04
2023-04-18T21:07:23.309Z,11.03
2023-04-18T21:09:53.234Z,11.02
2023-04-18T21:12:23.768Z,11.02
2023-04-18T21:14:54.089Z,10.98
2023-04-18T21:17:25.549Z,10.96
2023-04-18T21:19:56.711Z,10.95
2023-04-18T21:22:26.886Z,10.94
2023-04-18T21:24:57.419Z,10.94
2023-04-18T21:27:28.150Z,10.94
2023-04-18T21:29:58.877Z,10.93
2023-04-18T21:32:29.024Z,10.93
2023-04-18T21:35:00.351Z,10.93
2023-04-18T21:37:32.305Z,10.91
2023-04-18T21:40:03.658Z,10.90
2023-04-18T21:42:35.205Z,10.90
2023-04-18T21:45:07.367Z,10.90
2023-04-18T21:47:37.957Z,10.89
2023-04-18T21:50:11.794Z,10.87
2023-04-18T21:52:42.027Z,10.85
2023-04-18T21:55:12.764Z,10.84
2023-04-18T21:57:43.296Z,10.83
2023-04-18T22:00:16.580Z,10.81
2023-04-18T22:02:47.370Z,10.77
2023-04-18T22:05:18.144Z,10.76
2023-04-18T22:07:57.599Z,10.73
2023-04-18T22:10:29.025Z,10.71
2023-04-18T22:13:00.786Z,10.73
2023-04-18T22:15:31.128Z,10.71
2023-04-18T22:18:01.509Z,10.73
2023-04-18T22:20:33.120Z,10.73
2023-04-18T22:23:13.000Z,10.74
2023-04-18T22:25:43.269Z,10.76
2023-04-18T22:28:13.790Z,10.76
2023-04-18T22:30:44.125Z,10.76
2023-04-18T22:33:14.231Z,10.77
2023-04-18T22:35:44.556Z,10.78
2023-04-18T22:38:14.871Z,10.77
2023-04-18T22:40:44.784Z,10.76
2023-04-18T22:43:14.674Z,10.75
2023-04-18T22:45:45.468Z,10.75
2023-04-18T22:48:16.695Z,10.75
2023-04-18T22:50:47.309Z,10.74
2023-04-18T22:53:17.495Z,10.73
2023-04-18T22:55:47.712Z,10.73
2023-04-18T22:58:17.859Z,10.72
2023-04-18T23:00:48.184Z,10.71
2023-04-18T23:03:18.701Z,10.73
2023-04-18T23:05:49.060Z,10.71
2023-04-18T23:08:20.386Z,10.69
2023-04-18T23:10:50.909Z,10.69
2023-04-18T23:13:21.015Z,10.67
2023-04-18T23:15:51.182Z,10.67
2023-04-18T23:18:21.268Z,10.65
2023-04-18T23:20:51.589Z,10.64
2023-04-18T23:23:21.414Z,10.63
2023-04-18T23:25:52.450Z,10.62
2023-04-18T23:28:22.853Z,10.61
2023-04-18T23:30:54.109Z,10.62
2023-04-18T23:33:24.275Z,10.59
2023-04-18T23:35:54.347Z,10.59
2023-04-18T23:38:24.666Z,10.58
2023-04-18T23:40:54.988Z,10.56
2023-04-18T23:43:25.153Z,10.55
2023-04-18T23:45:55.430Z,10.54
2023-04-18T23:48:25.548Z,10.52
2023-04-18T23:50:55.868Z,10.52
2023-04-18T23:53:25.848Z,10.52
2023-04-18T23:55:56.520Z,10.51
2023-04-18T23:58:27.042Z,10.50
